SAOU/LUQ METAR and TAF weather

Enter ICAO airport designator
Station Type Date Time Source
SAOU METAR 2019/07/29 08:30 UTC NOAA

SAOU 290830Z 34009KT 8000 BKN007 05/05 Q1017 RMK ESTIMATED WIND


Station Type Date Time Source
SAOU Decoded METAR 2019/07/29 08:30 UTC NOAA

San Luis Aerodrome, Argentina (SAOU) 33-16S 066-21W 713M
Jul 29, 2019 - 04:30 AM EDT / 2019.07.29 0830 UTC
Wind: from the NNW (340 degrees) at 10 MPH (9 KT):0
Visibility: 4 mile(s):0
Sky conditions: mostly cloudy
Temperature: 41 F (5 C)
Dew Point: 41 F (5 C)
Relative Humidity: 100%
Pressure (altimeter): 30.03 in. Hg (1017 hPa)
ob: SAOU 290830Z 34009KT 8000 BKN007 05/05 Q1017 RMK ESTIMATED WIND
cycle: 8

Station Type Date Time Source
SAOU TAF 2019/08/18 18:03 UTC NOAA

TAF SAOU 181700Z 1818/1918 14005KT 9999 FEW030 SCT060 TX16/1819Z TN03/1910Z
BECMG 1902/1905 11010KT 9999 BKN030 SCT070

Example: see airport list